Aérodrome :
LOGIN :

S'inscrire | Disclaimer

   EN    FR    IT 

 










Légende :    VFR   VFR Marginal   IFR   IFR Intensif   IFR Très Intensif
Visi : 
Plafond : 
>= 8 km
>= 3000ft
5 à 8 km
1000 à 3000 ft
1500m à 5 km
500 à 1000 ft
800 à 1500m
200 à 500 ft
< 800m
< 200 ft
Symboles :   Orages  Brouillard  Fortes neiges  Fortes précipitations  Vent > 20 kt
SIGMETs :   Divers  Orages  Givrage  Turbulence  Onde Orograph.  Cendres Volcan.







- Altitude de l'aérodrome : 56 ft
- Code IATA : BZR
- Voir les cartes d'approche


LFMU - Beziers / Vias

DERNIER METAR :
  • 221730Z AUTO 12007KT CAVOK 18/13 Q1016 TEMPO 0200 FG VV///

METARs EXPIRÉS :
  • 221700Z AUTO 10007KT 060V130 CAVOK 18/14 Q1016 TEMPO 0200 FG VV///
  • 221630Z AUTO 15009KT 120V180 CAVOK 18/14 Q1017 TEMPO 0200 FG VV///
  • 221600Z AUTO 13008KT CAVOK 19/14 Q1016 TEMPO 1200 BR
  • 221530Z AUTO 15008KT 120V180 CAVOK 19/14 Q1016 TEMPO 1200 BR
  • 221500Z AUTO 14006KT 120V190 CAVOK 20/14 Q1017 NOSIG

TAF TAF LFMU
Valide du 22 à 15h jusqu'au 23 à 15h UTC


221400Z 2215/2315 VRB02KT CAVOK
TEMPO 2215/2217 16012KT
TEMPO 2217/2308 1200 BR
PROB30
TEMPO 2218/2306 0200 FG VV///
TEMPO 2311/2315 18012KT
PROB30
TEMPO 2313/2315 VRB15G25KT SHRA BKN050TCU
ATIS : +33 4 67 90 88 88
Pas de NOTAMs connus pour ce terrain.



MET'MAP, la Météo Aéronautique d'un coup d'oeil ! - Copyright ORBIFLY Décembre 2007 - Disclaimer

ORBIFLY MET'MAP TEAM :

Programmation & Développement : Alexandra Zaïnal
Conception & Développement : Baudouin d'Aumeries
Co-Programmation & Développement : Marc-Olivier Méhu
Soutien technique & logistique : Manuel Goepfert

Contact : metmap@orbifly.com




SOURCES & CREDITS :

   NOAA